الصفحة الرئيسية
METAR-TAF:

METAR-TAF

مطار :

مطار جبل طارق

جبل طارق, جبل طارق

دائرة عرض: 36-09N, خط طول: 005-21W, ارتفاع: 5 متر

مراقبة الطقس الحالي

تاريخ ووقت الإصدار 32 دقيقة قبل الساعة 02:50UTC
ريح 5 عقدة من الشرق/الشمال الشرقي
درجة الحرارة 23°درجة مئوية
الرطوبة 83%
ضغط 1019 hPa
الرؤية 10 كم أو أكثر

METAR: LXGB 240250Z AUTO 06005KT 9999 // NCD 23/20 Q1019

زمن: 05:22 (03:22 UTC)

توقعات

تاريخ ووقت الإصدار 10ساعات و 29 دقيقة قبل الساعة 16:53UTC
التوقعات صالحة من23 الساعة 18 UTC إلى 23 الساعة 22 UTC
ريح 10 عقدة من الشرق
الرؤية 10 كم أو أكثر
غيوم قليلة على ارتفاع 1000 قدم
نظرية الاحتمالات 30% :
مؤقت
من 23 الساعة 18 UTC إلى 23 الساعة 22 UTC
الرؤية: 7000 متر
غيوم متفرقة على ارتفاع 1000 قدم
العجاج

TAF: LXGB 231653Z 2318/2322 09010KT 9999 FEW010 PROB30 TEMPO 2318/2322 7000 HZ SCT010

أرصاد الطقس والتوقعات من أكثر من 4000 مطار (تقارير الطقس للمطار METAR والتنبؤ بالطقس بالمطارTAF).

المحطات المتاحة هي النقط الصفراء والحمراء على الخريطة.

حرك المؤشر فوق النقطة لمعرفة اسم المحطة.

ثم انقر لمعرفة أرصاد وتوقعات الطقس.

لتغيير الخارطة: اضغط على الأزرار الخضراء مع رمز الصليب الأسود للتكبير. على الزر الأخضر مع شرطة للتصغير، أو على الأسهم الخضراء للخرائط المجاورة.


METAR-TAF: